createdAt,value
2023-01-23T00:00:02.253Z,1.49
2023-01-23T00:01:02.226Z,1.49
2023-01-23T00:02:02.224Z,1.42
2023-01-23T00:03:02.213Z,1.45
2023-01-23T00:04:03.161Z,1.42
2023-01-23T00:05:02.251Z,1.44
2023-01-23T00:07:08.475Z,1.59
2023-01-23T00:08:08.464Z,1.48
2023-01-23T00:09:09.562Z,1.50
2023-01-23T00:10:09.553Z,1.52
2023-01-23T00:11:10.347Z,1.48
2023-01-23T00:12:09.534Z,1.40
2023-01-23T00:13:09.548Z,1.34
2023-01-23T00:14:10.331Z,1.38
2023-01-23T00:15:09.523Z,1.31
2023-01-23T00:16:09.528Z,1.34
2023-01-23T00:17:10.497Z,1.31
2023-01-23T00:18:09.491Z,1.37
2023-01-23T00:19:10.432Z,1.37
2023-01-23T00:20:09.477Z,1.28
2023-01-23T00:21:10.329Z,1.34
2023-01-23T00:22:09.451Z,1.38
2023-01-23T00:23:09.445Z,1.31
2023-01-23T00:24:09.435Z,1.35
2023-01-23T00:26:17.005Z,1.31
2023-01-23T00:27:16.998Z,1.31
2023-01-23T00:28:16.985Z,1.41
2023-01-23T00:29:18.724Z,1.38
2023-01-23T00:30:18.451Z,1.30
2023-01-23T00:31:18.149Z,1.23
2023-01-23T00:32:18.049Z,1.28
2023-01-23T00:33:18.038Z,1.30
2023-01-23T00:34:18.141Z,1.32
2023-01-23T00:35:18.017Z,1.28
2023-01-23T00:36:18.009Z,1.22
2023-01-23T00:37:17.999Z,1.20
2023-01-23T00:38:18.054Z,1.30
2023-01-23T00:39:18.010Z,1.28
2023-01-23T00:40:18.312Z,1.28
2023-01-23T00:41:17.979Z,1.28
2023-01-23T00:42:17.988Z,1.28
2023-01-23T00:43:17.953Z,1.32
2023-01-23T00:44:17.966Z,1.31
2023-01-23T00:45:17.943Z,1.23
2023-01-23T00:46:17.968Z,1.19
2023-01-23T00:47:17.936Z,1.30
2023-01-23T00:48:17.913Z,1.23
2023-01-23T00:49:17.945Z,1.24
2023-01-23T00:50:18.251Z,1.22
2023-01-23T00:51:18.789Z,1.34
2023-01-23T00:52:19.754Z,1.38
2023-01-23T00:53:18.728Z,1.35
2023-01-23T00:54:17.875Z,1.30
2023-01-23T00:55:17.866Z,1.28
2023-01-23T00:56:18.671Z,1.37
2023-01-23T00:57:17.942Z,1.31
2023-01-23T00:58:18.244Z,1.35
2023-01-23T00:59:18.646Z,1.31
2023-01-23T01:00:19.114Z,1.30
2023-01-23T01:01:17.856Z,1.38
2023-01-23T01:02:17.809Z,1.38
2023-01-23T01:03:17.827Z,1.34
2023-01-23T01:04:19.670Z,1.35
2023-01-23T01:05:17.784Z,1.34
2023-01-23T01:06:18.847Z,1.32
2023-01-23T01:07:17.765Z,1.37
2023-01-23T01:08:17.753Z,1.50
2023-01-23T01:09:17.745Z,1.41
2023-01-23T01:10:17.941Z,1.37
2023-01-23T01:11:17.731Z,1.35
2023-01-23T01:12:17.718Z,1.34
2023-01-23T01:13:17.724Z,1.37
2023-01-23T01:14:17.714Z,1.38
2023-01-23T01:15:17.695Z,1.55
2023-01-23T01:16:18.732Z,1.53
2023-01-23T01:17:17.684Z,1.40
2023-01-23T01:18:19.164Z,1.58
2023-01-23T01:19:17.678Z,1.38
2023-01-23T01:20:18.565Z,1.44
2023-01-23T01:21:17.649Z,1.45
2023-01-23T01:22:17.743Z,1.40
2023-01-23T01:23:18.226Z,1.41
2023-01-23T01:24:18.150Z,1.42
2023-01-23T01:25:17.659Z,1.37
2023-01-23T01:26:18.255Z,1.49
2023-01-23T01:27:21.775Z,1.40
2023-01-23T01:28:18.154Z,1.40
2023-01-23T01:29:28.280Z,1.40
2023-01-23T01:30:17.829Z,1.48
2023-01-23T01:31:19.243Z,1.48
2023-01-23T01:32:17.630Z,1.44
2023-01-23T01:33:19.875Z,1.44
2023-01-23T01:34:19.233Z,1.42
2023-01-23T01:35:19.175Z,1.60
2023-01-23T01:36:17.529Z,1.50
2023-01-23T01:37:19.665Z,1.60
2023-01-23T01:38:18.257Z,1.52
2023-01-23T01:39:17.505Z,1.50
2023-01-23T01:40:17.738Z,1.50
2023-01-23T01:41:19.241Z,1.62
2023-01-23T01:42:17.493Z,1.62
2023-01-23T01:43:17.483Z,1.56
2023-01-23T01:44:17.479Z,1.56
2023-01-23T01:45:17.459Z,1.56
2023-01-23T01:46:17.478Z,1.59
2023-01-23T01:47:17.445Z,1.56
2023-01-23T01:48:17.445Z,1.55
2023-01-23T01:49:19.175Z,1.53
2023-01-23T01:51:24.363Z,1.56
2023-01-23T01:52:24.302Z,1.60
2023-01-23T01:53:24.372Z,1.53
2023-01-23T01:54:24.258Z,1.56
2023-01-23T01:55:24.255Z,1.49
2023-01-23T01:56:25.333Z,1.48
2023-01-23T01:57:25.340Z,1.56
2023-01-23T01:58:25.332Z,1.55
2023-01-23T01:59:25.319Z,1.56
2023-01-23T02:00:25.348Z,1.58
2023-01-23T02:01:25.294Z,1.58
2023-01-23T02:02:25.280Z,1.55
2023-01-23T02:03:25.275Z,1.55
2023-01-23T02:04:25.277Z,1.58
2023-01-23T02:05:26.213Z,1.66
2023-01-23T02:06:25.261Z,1.58
2023-01-23T02:07:25.251Z,1.67
2023-01-23T02:08:25.253Z,1.60
2023-01-23T02:09:25.339Z,1.68
2023-01-23T02:10:25.252Z,1.66
2023-01-23T02:11:26.149Z,1.71
2023-01-23T02:12:25.712Z,1.66
2023-01-23T02:13:25.213Z,1.63
2023-01-23T02:14:25.193Z,1.67
2023-01-23T02:15:25.197Z,1.70
2023-01-23T02:16:25.194Z,1.67
2023-01-23T02:17:25.175Z,1.66
2023-01-23T02:18:25.168Z,1.66
2023-01-23T02:19:25.164Z,1.68
2023-01-23T02:20:25.143Z,1.66
2023-01-23T02:21:25.614Z,1.60
2023-01-23T02:22:26.147Z,1.71
2023-01-23T02:23:25.127Z,1.70
2023-01-23T02:24:25.116Z,1.76
2023-01-23T02:25:25.208Z,1.76
2023-01-23T02:26:26.774Z,1.68
2023-01-23T02:27:25.093Z,1.74
2023-01-23T02:28:25.091Z,1.62
2023-01-23T02:29:25.132Z,1.68
2023-01-23T02:30:25.061Z,1.67
2023-01-23T02:31:25.130Z,1.70
2023-01-23T02:32:25.053Z,1.67
2023-01-23T02:33:25.050Z,1.71
2023-01-23T02:34:25.716Z,1.71
2023-01-23T02:35:25.030Z,1.66
2023-01-23T02:36:25.030Z,1.62
2023-01-23T02:37:25.011Z,1.67
2023-01-23T02:38:25.006Z,1.66
2023-01-23T02:39:25.026Z,1.66
2023-01-23T02:40:24.990Z,1.67
2023-01-23T02:41:26.829Z,1.74
2023-01-23T02:42:24.998Z,1.74
2023-01-23T02:43:24.966Z,1.74
2023-01-23T02:44:24.968Z,1.68
2023-01-23T02:45:24.963Z,1.74
2023-01-23T02:46:24.942Z,1.67
2023-01-23T02:47:24.957Z,1.62
2023-01-23T02:48:24.925Z,1.63
2023-01-23T02:49:24.915Z,1.62
2023-01-23T02:50:24.908Z,1.62
2023-01-23T02:51:25.963Z,1.63
2023-01-23T02:52:24.895Z,1.59
2023-01-23T02:53:24.899Z,1.70
2023-01-23T02:54:24.879Z,1.63
2023-01-23T02:55:25.717Z,1.66
2023-01-23T02:56:24.873Z,1.62
2023-01-23T02:57:24.959Z,1.70
2023-01-23T02:58:25.643Z,1.62
2023-01-23T02:59:24.846Z,1.66
2023-01-23T03:00:24.835Z,1.63
2023-01-23T03:01:24.824Z,1.77
2023-01-23T03:02:24.905Z,1.74
2023-01-23T03:03:24.824Z,1.76
2023-01-23T03:04:24.804Z,1.85
2023-01-23T03:05:24.815Z,1.80
2023-01-23T03:06:24.791Z,1.68
2023-01-23T03:07:24.792Z,1.78
2023-01-23T03:08:25.719Z,1.68
2023-01-23T03:09:24.765Z,1.77
2023-01-23T03:10:24.824Z,1.74
2023-01-23T03:12:31.634Z,1.71
2023-01-23T03:13:31.615Z,1.71
2023-01-23T03:14:31.616Z,1.78
2023-01-23T03:15:32.714Z,1.78
2023-01-23T03:16:32.775Z,1.70
2023-01-23T03:17:32.668Z,1.71
2023-01-23T03:18:35.965Z,1.76
2023-01-23T03:19:33.650Z,1.70
2023-01-23T03:20:32.685Z,1.80
2023-01-23T03:21:32.638Z,1.71
2023-01-23T03:22:32.630Z,1.81
2023-01-23T03:23:32.633Z,1.71
2023-01-23T03:24:32.611Z,1.71
2023-01-23T03:25:32.609Z,1.70
2023-01-23T03:26:32.618Z,1.70
2023-01-23T03:27:32.588Z,1.71
2023-01-23T03:28:32.686Z,1.71
2023-01-23T03:29:32.581Z,1.74
2023-01-23T03:30:32.589Z,1.71
2023-01-23T03:31:32.645Z,1.70
2023-01-23T03:32:32.568Z,1.74
2023-01-23T03:33:32.552Z,1.71
2023-01-23T03:34:32.547Z,1.73
2023-01-23T03:35:32.544Z,1.77
2023-01-23T03:36:32.525Z,1.73
2023-01-23T03:37:32.514Z,1.77
2023-01-23T03:38:32.508Z,1.74
2023-01-23T03:39:33.506Z,1.73
2023-01-23T03:40:32.492Z,1.80
2023-01-23T03:41:32.485Z,1.77
2023-01-23T03:42:32.473Z,1.81
2023-01-23T03:43:33.464Z,1.77
2023-01-23T03:44:32.553Z,1.81
2023-01-23T03:45:32.485Z,1.80
2023-01-23T03:46:32.449Z,1.78
2023-01-23T03:47:32.435Z,1.77
2023-01-23T03:48:32.437Z,1.77
2023-01-23T03:49:32.980Z,1.76
2023-01-23T03:50:32.429Z,1.67
2023-01-23T03:51:32.402Z,1.76
2023-01-23T03:52:32.402Z,1.78
2023-01-23T03:53:33.377Z,1.84
2023-01-23T03:54:32.375Z,1.81
2023-01-23T03:55:33.063Z,1.84
2023-01-23T03:56:32.984Z,1.87
2023-01-23T03:57:32.970Z,1.81
2023-01-23T03:58:32.355Z,1.84
2023-01-23T03:59:32.335Z,1.81
2023-01-23T04:00:32.440Z,1.77
2023-01-23T04:01:32.327Z,1.76
2023-01-23T04:02:32.353Z,1.77
2023-01-23T04:03:32.319Z,1.78
2023-01-23T04:04:32.303Z,1.81
2023-01-23T04:05:32.295Z,1.81
2023-01-23T04:06:32.292Z,1.89
2023-01-23T04:07:32.277Z,1.84
2023-01-23T04:08:32.275Z,1.84
2023-01-23T04:09:32.272Z,1.77
2023-01-23T04:10:32.268Z,1.85
2023-01-23T04:11:32.244Z,1.85
2023-01-23T04:12:32.957Z,1.81
2023-01-23T04:13:32.960Z,1.76
2023-01-23T04:14:32.225Z,1.84
2023-01-23T04:15:32.203Z,1.80
2023-01-23T04:16:34.104Z,1.87
2023-01-23T04:17:32.201Z,1.81
2023-01-23T04:18:32.197Z,1.80
2023-01-23T04:19:32.185Z,1.73
2023-01-23T04:20:32.185Z,1.81
2023-01-23T04:21:32.170Z,1.84
2023-01-23T04:22:32.160Z,1.71
2023-01-23T04:23:32.165Z,1.76
2023-01-23T04:24:32.148Z,1.70
2023-01-23T04:25:32.136Z,1.76
2023-01-23T04:26:32.148Z,1.77
2023-01-23T04:27:32.123Z,1.67
2023-01-23T04:28:32.973Z,1.60
2023-01-23T04:29:32.117Z,1.66
2023-01-23T04:30:32.260Z,1.63
2023-01-23T04:31:32.196Z,1.74
2023-01-23T04:32:32.173Z,1.70
2023-01-23T04:33:33.114Z,1.63
2023-01-23T04:34:32.071Z,1.66
2023-01-23T04:35:32.058Z,1.68
2023-01-23T04:36:32.052Z,1.62
2023-01-23T04:37:32.061Z,1.67
2023-01-23T04:38:32.035Z,1.67
2023-01-23T04:39:32.024Z,1.63
2023-01-23T04:40:32.038Z,1.60
2023-01-23T04:41:32.966Z,1.59
2023-01-23T04:42:32.033Z,1.60
2023-01-23T04:43:32.000Z,1.63
2023-01-23T04:44:32.008Z,1.63
2023-01-23T04:45:31.983Z,1.62
2023-01-23T04:46:31.969Z,1.66
2023-01-23T04:47:31.974Z,1.58
2023-01-23T04:48:32.058Z,1.59
2023-01-23T04:49:31.957Z,1.60
2023-01-23T04:50:31.955Z,1.52
2023-01-23T04:51:31.939Z,1.50
2023-01-23T04:52:31.925Z,1.59
2023-01-23T04:53:31.939Z,1.59
2023-01-23T04:54:31.924Z,1.56
2023-01-23T04:55:32.918Z,1.50
2023-01-23T04:56:31.918Z,1.55
2023-01-23T04:57:31.926Z,1.52
2023-01-23T04:58:31.896Z,1.52
2023-01-23T04:59:31.972Z,1.52
2023-01-23T05:00:31.879Z,1.48
2023-01-23T05:01:31.869Z,1.60
2023-01-23T05:02:31.872Z,1.56
2023-01-23T05:03:31.877Z,1.62
2023-01-23T05:04:31.978Z,1.50
2023-01-23T05:05:31.836Z,1.55
2023-01-23T05:06:31.823Z,1.59
2023-01-23T05:07:31.816Z,1.49
2023-01-23T05:08:31.809Z,1.55
2023-01-23T05:09:31.823Z,1.45
2023-01-23T05:10:31.796Z,1.56
2023-01-23T05:11:31.797Z,1.53
2023-01-23T05:12:31.774Z,1.55
2023-01-23T05:13:31.799Z,1.50
2023-01-23T05:14:32.494Z,1.55
2023-01-23T05:15:31.802Z,1.53
2023-01-23T05:16:31.746Z,1.53
2023-01-23T05:17:31.761Z,1.56
2023-01-23T05:18:31.731Z,1.50
2023-01-23T05:19:31.730Z,1.56
2023-01-23T05:20:32.661Z,1.60
2023-01-23T05:21:31.711Z,1.59
2023-01-23T05:22:31.704Z,1.48
2023-01-23T05:23:33.571Z,1.48
2023-01-23T05:24:31.691Z,1.55
2023-01-23T05:25:31.670Z,1.44
2023-01-23T05:26:31.669Z,1.49
2023-01-23T05:27:33.543Z,1.48
2023-01-23T05:28:31.666Z,1.42
2023-01-23T05:29:31.636Z,1.53
2023-01-23T05:30:32.574Z,1.48
2023-01-23T05:31:31.729Z,1.53
2023-01-23T05:32:31.627Z,1.48
2023-01-23T05:33:31.628Z,1.62
2023-01-23T05:34:31.605Z,1.45
2023-01-23T05:35:31.611Z,1.42
2023-01-23T05:36:31.691Z,1.49
2023-01-23T05:37:31.618Z,1.50
2023-01-23T05:38:31.599Z,1.58
2023-01-23T05:39:31.594Z,1.53
2023-01-23T05:40:31.569Z,1.52
2023-01-23T05:41:32.540Z,1.55
2023-01-23T05:42:32.487Z,1.55
2023-01-23T05:43:31.556Z,1.48
2023-01-23T05:44:31.541Z,1.48
2023-01-23T05:45:32.469Z,1.42
2023-01-23T05:46:31.597Z,1.48
2023-01-23T05:47:31.503Z,1.48
2023-01-23T05:48:31.508Z,1.60
2023-01-23T05:49:31.500Z,1.49
2023-01-23T05:50:34.502Z,1.48
2023-01-23T05:51:31.480Z,1.59
2023-01-23T05:52:31.588Z,1.48
2023-01-23T05:53:31.457Z,1.59
2023-01-23T05:54:31.449Z,1.49
2023-01-23T05:55:31.442Z,1.49
2023-01-23T05:56:31.442Z,1.60
2023-01-23T05:57:31.447Z,1.55
2023-01-23T05:58:31.424Z,1.60
2023-01-23T05:59:31.468Z,1.50
2023-01-23T06:00:31.417Z,1.53
2023-01-23T06:01:31.398Z,1.48
2023-01-23T06:02:32.390Z,1.50
2023-01-23T06:03:31.457Z,1.41
2023-01-23T06:04:31.440Z,1.53
2023-01-23T06:05:31.379Z,1.50
2023-01-23T06:06:31.367Z,1.53
2023-01-23T06:07:31.362Z,1.56
2023-01-23T06:08:31.435Z,1.53
2023-01-23T06:09:32.976Z,1.49
2023-01-23T06:10:31.976Z,1.50
2023-01-23T06:11:32.068Z,1.58
2023-01-23T06:12:31.326Z,1.50
2023-01-23T06:13:33.985Z,1.63
2023-01-23T06:14:31.314Z,1.56
2023-01-23T06:15:31.357Z,1.58
2023-01-23T06:16:31.298Z,1.66
2023-01-23T06:17:31.324Z,1.59
2023-01-23T06:18:31.259Z,1.60
2023-01-23T06:19:31.268Z,1.63
2023-01-23T06:20:31.251Z,1.59
2023-01-23T06:21:32.973Z,1.55
2023-01-23T06:22:31.986Z,1.58
2023-01-23T06:23:32.241Z,1.67
2023-01-23T06:24:31.318Z,1.58
2023-01-23T06:25:31.236Z,1.62
2023-01-23T06:26:31.202Z,1.62
2023-01-23T06:27:31.185Z,1.60
2023-01-23T06:28:31.187Z,1.60
2023-01-23T06:29:31.173Z,1.66
2023-01-23T06:30:33.047Z,1.66
2023-01-23T06:31:32.347Z,1.55
2023-01-23T06:32:31.181Z,1.48
2023-01-23T06:33:31.152Z,1.45
2023-01-23T06:34:31.128Z,1.50
2023-01-23T06:35:31.132Z,1.55
2023-01-23T06:36:31.126Z,1.50
2023-01-23T06:37:32.123Z,1.55
2023-01-23T06:38:31.103Z,1.48
2023-01-23T06:39:31.117Z,1.50
2023-01-23T06:40:31.200Z,1.41
2023-01-23T06:41:31.090Z,1.53
2023-01-23T06:42:31.083Z,1.44
2023-01-23T06:43:31.073Z,1.50
2023-01-23T06:44:31.079Z,1.48
2023-01-23T06:45:31.063Z,1.41
2023-01-23T06:46:31.073Z,1.48
2023-01-23T06:47:31.044Z,1.40
2023-01-23T06:48:31.983Z,1.41
2023-01-23T06:49:31.032Z,1.40
2023-01-23T06:50:31.036Z,1.55
2023-01-23T06:51:31.040Z,1.50
2023-01-23T06:52:31.009Z,1.41
2023-01-23T06:53:30.993Z,1.34
2023-01-23T06:54:30.997Z,1.50
2023-01-23T06:55:31.004Z,1.58
2023-01-23T06:56:33.666Z,1.45
2023-01-23T06:57:30.975Z,1.41
2023-01-23T06:58:30.975Z,1.44
2023-01-23T06:59:30.960Z,1.45
2023-01-23T07:00:30.987Z,1.41
2023-01-23T07:01:30.960Z,1.42
2023-01-23T07:02:30.978Z,1.40
2023-01-23T07:03:30.968Z,1.56
2023-01-23T07:04:31.554Z,1.45
2023-01-23T07:05:32.572Z,1.44
2023-01-23T07:06:32.571Z,1.49
2023-01-23T07:07:30.887Z,1.55
2023-01-23T07:08:31.569Z,1.44
2023-01-23T07:09:31.477Z,1.42
2023-01-23T07:10:30.858Z,1.48
2023-01-23T07:11:30.851Z,1.52
2023-01-23T07:12:32.601Z,1.53
2023-01-23T07:13:31.574Z,1.55
2023-01-23T07:14:31.515Z,1.44
2023-01-23T07:15:31.481Z,1.58
2023-01-23T07:16:30.852Z,1.45
2023-01-23T07:18:37.502Z,1.62
2023-01-23T07:19:37.498Z,1.56
2023-01-23T07:20:37.490Z,1.53
2023-01-23T07:21:37.509Z,1.56
2023-01-23T07:22:37.474Z,1.45
2023-01-23T07:23:37.473Z,1.59
2023-01-23T07:24:37.457Z,1.50
2023-01-23T07:25:37.450Z,1.48
2023-01-23T07:26:37.450Z,1.53
2023-01-23T07:27:37.541Z,1.55
2023-01-23T07:28:37.434Z,1.50
2023-01-23T07:29:37.958Z,1.58
2023-01-23T07:30:38.556Z,1.55
2023-01-23T07:31:38.628Z,1.53
2023-01-23T07:32:38.497Z,1.53
2023-01-23T07:33:39.029Z,1.53
2023-01-23T07:34:38.486Z,1.58
2023-01-23T07:35:38.483Z,1.58
2023-01-23T07:36:38.462Z,1.59
2023-01-23T07:37:38.458Z,1.63
2023-01-23T07:38:38.456Z,1.55
2023-01-23T07:39:38.444Z,1.60
2023-01-23T07:40:38.439Z,1.70
2023-01-23T07:41:39.743Z,1.70
2023-01-23T07:42:38.425Z,1.55
2023-01-23T07:43:38.538Z,1.55
2023-01-23T07:44:38.409Z,1.68
2023-01-23T07:45:38.426Z,1.68
2023-01-23T07:46:39.046Z,1.68
2023-01-23T07:47:38.383Z,1.62
2023-01-23T07:48:38.384Z,1.67
2023-01-23T07:49:38.376Z,1.62
2023-01-23T07:50:38.374Z,1.62
2023-01-23T07:51:38.346Z,1.66
2023-01-23T07:52:38.352Z,1.68
2023-01-23T07:53:39.332Z,1.67
2023-01-23T07:54:38.331Z,1.73
2023-01-23T07:55:38.331Z,1.74
2023-01-23T07:56:38.359Z,1.78
2023-01-23T07:57:38.351Z,1.77
2023-01-23T07:58:40.040Z,1.73
2023-01-23T07:59:38.426Z,1.80
2023-01-23T08:00:41.131Z,1.71
2023-01-23T08:02:45.133Z,1.76
2023-01-23T08:03:45.183Z,1.68
2023-01-23T08:04:46.129Z,1.77
2023-01-23T08:05:45.140Z,1.78
2023-01-23T08:06:45.101Z,1.74
2023-01-23T08:07:46.195Z,1.80
2023-01-23T08:08:46.202Z,1.77
2023-01-23T08:09:46.179Z,1.78
2023-01-23T08:10:46.215Z,1.78
2023-01-23T08:11:49.081Z,1.89
2023-01-23T08:12:46.149Z,1.89
2023-01-23T08:13:46.143Z,1.92
2023-01-23T08:14:46.233Z,1.87
2023-01-23T08:15:46.122Z,1.80
2023-01-23T08:16:46.132Z,1.84
2023-01-23T08:17:46.149Z,1.76
2023-01-23T08:18:46.101Z,1.80
2023-01-23T08:19:46.095Z,1.85
2023-01-23T08:20:47.090Z,1.89
2023-01-23T08:21:48.003Z,1.91
2023-01-23T08:22:46.072Z,1.89
2023-01-23T08:23:46.124Z,1.85
2023-01-23T08:25:53.135Z,1.94
2023-01-23T08:26:53.127Z,1.89
2023-01-23T08:27:54.271Z,1.87
2023-01-23T08:28:53.111Z,1.91
2023-01-23T08:29:53.207Z,1.94
2023-01-23T08:30:53.159Z,2.04
2023-01-23T08:31:53.102Z,1.99
2023-01-23T08:32:53.074Z,1.97
2023-01-23T08:33:53.065Z,1.95
2023-01-23T08:34:53.052Z,2.08
2023-01-23T08:35:53.099Z,2.04
2023-01-23T08:36:53.079Z,1.97
2023-01-23T08:37:53.041Z,1.97
2023-01-23T08:38:53.026Z,1.95
2023-01-23T08:39:53.014Z,2.00
2023-01-23T08:40:54.780Z,1.97
2023-01-23T08:41:53.025Z,2.00
2023-01-23T08:42:52.997Z,1.91
2023-01-23T08:43:53.297Z,2.00
2023-01-23T08:44:52.979Z,2.11
2023-01-23T08:45:53.139Z,2.14
2023-01-23T08:46:54.067Z,2.11
2023-01-23T08:47:54.068Z,2.14
2023-01-23T08:48:55.809Z,2.22
2023-01-23T08:49:55.780Z,2.14
2023-01-23T08:50:54.058Z,2.18
2023-01-23T08:51:54.022Z,2.13
2023-01-23T08:52:54.008Z,2.22
2023-01-23T08:53:54.004Z,2.20
2023-01-23T08:54:54.006Z,2.28
2023-01-23T08:55:53.987Z,2.25
2023-01-23T08:56:54.018Z,2.33
2023-01-23T08:57:53.978Z,2.28
2023-01-23T08:58:53.978Z,2.29
2023-01-23T08:59:54.845Z,2.29
2023-01-23T09:00:53.994Z,2.24
2023-01-23T09:01:54.111Z,2.26
2023-01-23T09:02:53.931Z,2.22
2023-01-23T09:03:53.921Z,2.28
2023-01-23T09:04:54.374Z,2.22
2023-01-23T09:05:53.931Z,2.36
2023-01-23T09:06:53.894Z,2.36
2023-01-23T09:07:55.855Z,2.20
2023-01-23T09:08:53.879Z,2.39
2023-01-23T09:09:54.823Z,2.35
2023-01-23T09:10:53.890Z,2.24
2023-01-23T09:11:56.936Z,2.28
2023-01-23T09:12:53.863Z,2.14
2023-01-23T09:13:54.264Z,2.17
2023-01-23T09:14:54.885Z,2.24
2023-01-23T09:15:53.828Z,2.26
2023-01-23T09:16:53.923Z,2.22
2023-01-23T09:17:53.929Z,2.33
2023-01-23T09:18:53.825Z,2.31
2023-01-23T09:19:53.794Z,2.26
2023-01-23T09:20:53.785Z,2.31
2023-01-23T09:21:53.790Z,2.29
2023-01-23T09:22:53.785Z,2.38
2023-01-23T09:23:53.756Z,2.38
2023-01-23T09:24:53.748Z,2.35
2023-01-23T09:25:53.760Z,2.38
2023-01-23T09:26:53.763Z,2.32
2023-01-23T09:27:53.768Z,2.32
2023-01-23T21:25:15.227Z,2.69
2023-01-23T21:26:15.214Z,2.67
2023-01-23T21:27:15.194Z,2.53
2023-01-23T21:28:15.191Z,2.56
2023-01-23T21:29:16.277Z,2.57
2023-01-23T21:30:16.272Z,2.57
2023-01-23T21:31:16.383Z,2.54
2023-01-23T21:32:16.254Z,2.49
2023-01-23T21:33:17.134Z,2.61
2023-01-23T21:34:16.245Z,2.57
2023-01-23T21:35:16.247Z,2.65
2023-01-23T21:36:16.227Z,2.60
2023-01-23T21:37:16.207Z,2.62
2023-01-23T21:38:16.641Z,2.61
2023-01-23T21:39:16.207Z,2.62
2023-01-23T21:40:16.648Z,2.61
2023-01-23T21:41:16.282Z,2.62
2023-01-23T21:42:16.165Z,2.56
2023-01-23T21:43:16.173Z,2.60
2023-01-23T21:44:16.154Z,2.57
2023-01-23T21:45:16.160Z,2.61
2023-01-23T21:46:16.163Z,2.64
2023-01-23T21:47:16.135Z,2.69
2023-01-23T21:48:16.128Z,2.65
2023-01-23T21:49:16.121Z,2.54
2023-01-23T21:50:16.117Z,2.64
2023-01-23T21:51:16.112Z,2.51
2023-01-23T21:52:16.089Z,2.61
2023-01-23T21:53:16.113Z,2.54
2023-01-23T21:54:16.085Z,2.61
2023-01-23T21:55:16.080Z,2.61
2023-01-23T21:56:16.068Z,2.49
2023-01-23T21:57:16.177Z,2.57
2023-01-23T21:58:16.051Z,2.67
2023-01-23T21:59:16.032Z,2.56
2023-01-23T22:00:16.027Z,2.60
2023-01-23T22:01:16.092Z,2.64
2023-01-23T22:02:16.147Z,2.62
2023-01-23T22:03:16.006Z,2.60
2023-01-23T22:04:16.004Z,2.62
2023-01-23T22:05:15.996Z,2.57
2023-01-23T22:06:15.981Z,2.64
2023-01-23T22:07:15.991Z,2.56
2023-01-23T22:08:15.965Z,2.53
2023-01-23T22:09:15.972Z,2.51
2023-01-23T22:10:15.956Z,2.51
2023-01-23T22:11:15.957Z,2.49
2023-01-23T22:12:15.942Z,2.54
2023-01-23T22:13:16.037Z,2.61
2023-01-23T22:14:15.926Z,2.46
2023-01-23T22:15:15.957Z,2.54
2023-01-23T22:16:15.974Z,2.50
2023-01-23T22:17:15.893Z,2.44
2023-01-23T22:18:15.900Z,2.49
2023-01-23T22:19:15.887Z,2.39
2023-01-23T22:20:15.893Z,2.42
2023-01-23T22:21:15.865Z,2.38
2023-01-23T22:22:15.857Z,2.46
2023-01-23T22:23:15.855Z,2.36
2023-01-23T22:24:15.954Z,2.42
2023-01-23T22:25:16.646Z,2.44
2023-01-23T22:26:15.831Z,2.42
2023-01-23T22:27:15.817Z,2.29
2023-01-23T22:28:15.805Z,2.43
2023-01-23T22:29:15.905Z,2.38
2023-01-23T22:30:15.805Z,2.31
2023-01-23T22:31:15.902Z,2.42
2023-01-23T22:32:15.933Z,2.43
2023-01-23T22:33:15.802Z,2.36
2023-01-23T22:34:15.775Z,2.42
2023-01-23T22:35:15.756Z,2.43
2023-01-23T22:36:16.234Z,2.49
2023-01-23T22:37:20.430Z,2.49
2023-01-23T22:38:15.970Z,2.46
2023-01-23T22:39:17.622Z,2.43
2023-01-23T22:40:15.724Z,2.47
2023-01-23T22:41:15.719Z,2.50
2023-01-23T22:42:15.701Z,2.43
2023-01-23T22:43:15.704Z,2.44
2023-01-23T22:44:15.679Z,2.38
2023-01-23T22:45:15.773Z,2.39
2023-01-23T22:46:15.661Z,2.47
2023-01-23T22:47:15.696Z,2.39
2023-01-23T22:48:15.652Z,2.35
2023-01-23T22:49:15.652Z,2.35
2023-01-23T22:50:17.011Z,2.36
2023-01-23T22:51:16.661Z,2.36
2023-01-23T22:52:15.615Z,2.38
2023-01-23T22:53:15.623Z,2.32
2023-01-23T22:54:15.610Z,2.35
2023-01-23T22:55:15.593Z,2.42
2023-01-23T22:56:15.590Z,2.39
2023-01-23T22:57:15.595Z,2.25
2023-01-23T22:58:15.565Z,2.38
2023-01-23T22:59:16.166Z,2.42
2023-01-23T23:00:15.571Z,2.29
2023-01-23T23:01:15.716Z,2.43
2023-01-23T23:02:15.545Z,2.39
2023-01-23T23:03:15.581Z,2.35
2023-01-23T23:04:15.573Z,2.31
2023-01-23T23:05:15.519Z,2.26
2023-01-23T23:06:15.515Z,2.29
2023-01-23T23:07:15.513Z,2.38
2023-01-23T23:08:15.522Z,2.26
